Date,TemperatureHighF,TemperatureAvgF,TemperatureLowF,DewpointHighF,DewpointAvgF,DewpointLowF,HumidityHigh,HumidityAvg,HumidityLow,PressureMaxIn,PressureMinIn,WindSpeedMaxMPH,WindSpeedAvgMPH,GustSpeedMaxMPH,PrecipitationSumIn
2013-9-1,83,73,67,74,69,66,97,90,68,29.88,29.78,7,1,13,0.00
2013-9-2,79,72,67,71,69,66,97,89,74,29.92,29.81,9,1,9,0.00
2013-9-3,83,73,64,72,68,63,97,85,58,29.95,29.81,8,1,11,0.00
2013-9-4,84,71,64,70,66,63,97,85,57,30.07,29.95,6,1,7,0.00
2013-9-5,82,71,64,69,66,63,96,84,57,30.10,30.03,4,1,7,0.00
2013-9-6,82,72,65,67,65,62,96,80,53,30.12,30.02,5,1,10,0.00
2013-9-7,82,70,60,68,64,59,96,83,57,30.09,29.96,5,1,12,0.00
2013-9-8,83,71,63,70,65,61,97,82,50,30.00,29.90,4,1,8,0.00
2013-9-9,84,71,62,70,65,61,97,83,57,30.10,29.98,8,1,11,0.00
2013-9-10,84,72,62,71,66,61,97,82,55,30.19,30.09,5,1,9,0.00
2013-9-11,85,72,62,71,66,61,96,83,54,30.20,30.06,5,1,8,0.01
2013-9-12,78,70,65,72,67,64,96,90,78,30.07,29.87,4,1,7,0.09
2013-9-13,76,68,53,68,61,51,95,79,51,29.88,29.79,7,2,12,0.01
2013-9-14,76,61,50,58,54,48,96,78,48,30.08,29.88,7,2,11,0.00
2013-9-15,78,66,55,63,59,53,96,81,56,30.15,30.07,8,2,14,0.00
2013-9-16,80,67,58,68,61,56,97,82,54,30.13,30.04,5,1,9,0.01
2013-9-17,73,66,60,61,59,56,94,79,62,30.20,30.10,9,3,17,0.00
2013-9-18,72,66,60,62,58,53,92,76,65,30.21,30.11,6,2,11,0.01
2013-9-19,80,66,57,66,61,55,96,84,60,30.17,30.04,6,1,8,0.01
2013-9-20,81,68,60,67,63,59,97,84,59,30.07,29.88,9,1,10,0.01
2013-9-21,69,65,60,65,63,58,95,93,86,29.90,29.66,7,1,12,0.91
2013-9-22,74,62,53,60,56,52,96,83,53,29.88,29.74,6,1,9,0.02
2013-9-23,74,62,53,61,56,52,97,82,59,30.02,29.88,8,1,11,0.00
2013-9-24,70,62,53,63,58,52,96,88,76,30.02,29.89,9,2,12,0.01
2013-9-25,66,63,61,62,60,58,95,90,85,29.88,29.80,8,2,12,1.52
2013-9-26,77,65,58,66,60,57,95,85,61,29.99,29.85,7,1,10,0.00
2013-9-27,77,64,54,63,57,53,97,81,52,30.12,30.00,6,1,7,0.00
2013-9-28,73,63,50,59,56,49,95,77,59,30.18,30.07,8,2,15,0.00
2013-9-29,70,61,50,58,54,48,94,78,61,30.13,30.00,9,1,11,0.00
2013-9-30,71,61,52,61,55,50,96,84,61,30.07,29.98,6,1,10,0.00